Latest Weather Observations for Murganella Airstrip

IDD60801

Issued at 7:01 am CST Wednesday 29 July 2015 (issued every 30 minutes, with the page automatically refreshed every 10 minutes)

About weather observations | Map of weather stations | Latest weather observations for NT | Other Formats
Station Details ID: 014309 Name: MURGANELLA AIRSTRIP Lat: -11.55 Lon: 132.93 Height: 9.5 m
Data from the previous 72 hours. | See also: Recent months for locations in Northern Territory
Date/Time
CST
Temp
°C
App
Temp
°C
Dew
Point
Rel
Hum
%
Delta-T
°C
Wind Press
QNH
hPa
Press
MSL
hPa
Rain
since 9 am
mm
Dir
 
Spd
km/h
Gust
km/h
Spd
kts
Gust
kts
29/07:00am 19.5 21.3 18.3 93 0.7 ESE 6 9 3 5 1016.6 1016.6 0.0
29/06:30am 19.6 21.8 19.1 97 0.3 SE 6 9 3 5 1016.3 1016.3 0.0
29/06:00am 18.9 21.0 18.9 100 0.0 SE 6 7 3 4 1016.2 1016.2 0.0
29/05:30am 18.6 20.5 18.6 100 0.0 SE 6 7 3 4 1016.0 1016.0 0.0
29/05:00am 18.7 20.6 18.5 99 0.1 SE 6 6 3 3 1016.0 1016.0 0.0
29/04:30am 19.3 21.7 18.8 97 0.3 SE 4 6 2 3 1015.9 1015.9 0.0
29/04:00am 19.7 22.1 18.9 95 0.5 SE 4 6 2 3 1016.1 1016.1 0.0
29/03:30am 20.1 22.2 18.2 89 1.2 SE 4 6 2 3 1016.4 1016.4 0.0
29/03:00am 21.0 23.1 18.2 84 1.7 SE 4 9 2 5 1016.6 1016.6 0.0
29/02:30am 22.1 23.8 18.5 80 2.3 ESE 7 11 4 6 1016.7 1016.7 0.0
29/02:00am 22.8 23.9 18.8 78 2.5 ESE 11 19 6 10 1016.6 1016.6 0.0
29/01:30am 23.2 24.5 19.2 78 2.5 ESE 11 19 6 10 1016.6 1016.6 0.0
29/01:00am 23.1 24.9 19.5 80 2.3 ESE 9 19 5 10 1016.6 1016.6 0.0
29/12:30am 21.8 24.5 20.3 91 1.0 SE 6 9 3 5 1016.6 1016.6 0.0
29/12:00am 21.3 24.5 21.3 100 0.0 ESE 6 11 3 6 1016.5 1016.5 0.0
 
Date/Time
CST
Temp
°C
App
Temp
°C
Dew
Point
Rel
Hum
%
Delta-T
°C
Wind Press
QNH
hPa
Press
MSL
hPa
Rain
since 9 am
mm
Dir
 
Spd
km/h
Gust
km/h
Spd
kts
Gust
kts
28/11:30pm 18.7 21.1 18.7 100 0.0 SE 4 6 2 3 1016.6 1016.6 0.0
28/11:00pm 18.8 22.0 18.8 100 0.0 CALM 0 0 0 0 1016.6 1016.6 0.0
28/10:30pm 19.3 22.4 18.6 96 0.4 CALM 0 0 0 0 1016.7 1016.7 0.0
28/10:00pm 19.9 23.0 18.7 93 0.7 CALM 0 0 0 0 1016.8 1016.8 0.0
28/09:30pm 20.5 23.5 18.4 88 1.3 CALM 0 0 0 0 1016.8 1016.8 0.0
28/09:00pm 21.0 23.5 18.2 84 1.7 ESE 2 4 1 2 1016.7 1016.7 0.0
28/08:30pm 21.6 24.0 18.0 80 2.2 E 2 2 1 1 1016.7 1016.7 0.0
28/08:00pm 22.8 25.3 19.0 79 2.4 ESE 4 6 2 3 1016.3 1016.3 0.0
28/07:30pm 23.4 25.5 17.2 68 3.8 E 2 4 1 2 1016.0 1016.0 0.0
28/07:00pm 24.6 26.6 17.8 66 4.3 E 4 6 2 3 1015.6 1015.6 0.0
28/06:30pm 25.8 27.6 17.4 59 5.2 E 4 6 2 3 1015.3 1015.3 0.0
28/06:00pm 27.2 28.6 17.4 55 6.1 E 6 9 3 5 1015.0 1015.0 0.0
28/05:30pm 28.4 29.0 16.7 49 7.3 ENE 9 17 5 9 1014.8 1014.8 0.0
28/05:00pm 29.4 29.8 16.2 44 8.2 ENE 9 17 5 9 1014.5 1014.5 0.0
28/04:30pm 29.8 29.7 15.9 43 8.6 ENE 11 20 6 11 1014.4 1014.4 0.0
28/04:00pm 30.0 28.7 14.9 39 9.2 ESE 15 24 8 13 1014.3 1014.3 0.0
28/03:30pm 31.3 30.6 15.3 38 9.9 E 13 24 7 13 1014.4 1014.4 0.0
28/03:00pm 30.4 28.9 14.1 37 9.8 E 15 24 8 13 1014.6 1014.6 0.0
28/02:30pm 30.8 29.5 14.8 37 9.8 E 15 24 8 13 1014.6 1014.6 0.0
28/02:00pm 30.9 29.9 14.5 37 10.0 ESE 13 28 7 15 1015.0 1015.0 0.0
28/01:30pm 30.3 28.0 14.0 37 9.8 E 19 32 10 17 1015.4 1015.4 0.0
28/01:00pm 30.8 29.7 14.4 36 10.0 E 13 35 7 19 1015.8 1015.8 0.0
28/12:30pm 30.7 29.2 14.3 36 9.9 ESE 15 24 8 13 1016.1 1016.1 0.0
28/12:00pm 29.1 26.8 12.9 37 9.5 ESE 17 33 9 18 1016.5 1016.5 0.0
28/11:30am 29.2 26.6 13.8 39 9.2 ESE 20 35 11 19 1016.8 1016.8 0.0
28/11:00am 28.6 26.7 14.1 41 8.7 E 17 35 9 19 1017.0 1017.0 0.0
28/10:30am 28.5 26.8 14.7 43 8.3 ESE 17 28 9 15 1017.3 1017.3 0.0
28/10:00am 27.2 24.7 14.2 44 7.8 ESE 20 37 11 20 1017.6 1017.6 0.0
28/09:30am 26.0 23.8 14.8 50 6.7 ESE 20 33 11 18 1017.8 1017.8 0.0
28/09:00am 25.6 23.9 14.7 51 6.5 ESE 17 32 9 17 1017.8 1017.8 0.0
28/08:30am 24.6 24.9 17.1 63 4.6 ESE 11 20 6 11 1017.8 1017.8 0.0
28/08:00am 22.8 23.8 16.8 69 3.7 ESE 7 13 4 7 1017.8 1017.8 0.0
28/07:30am 20.7 21.8 16.7 78 2.4 SE 6 9 3 5 1017.6 1017.6 0.0
28/07:00am 19.6 20.9 16.1 80 2.1 SE 4 7 2 4 1017.2 1017.2 0.0
28/06:30am 20.5 21.4 16.1 76 2.6 SE 6 9 3 5 1016.8 1016.8 0.0
28/06:00am 21.0 21.8 15.8 72 3.1 SE 6 7 3 4 1016.4 1016.4 0.0
28/05:30am 22.0 22.7 16.1 69 3.6 ESE 7 13 4 7 1016.4 1016.4 0.0
28/05:00am 22.0 22.7 16.1 69 3.6 ESE 7 13 4 7 1016.3 1016.3 0.0
28/04:30am 22.2 22.9 16.0 68 3.7 ESE 7 13 4 7 1016.1 1016.1 0.0
28/04:00am 21.9 22.7 17.3 75 2.8 ESE 9 17 5 9 1016.2 1016.2 0.0
28/03:30am 19.1 21.2 18.9 99 0.1 SE 6 7 3 4 1016.1 1016.1 0.0
28/03:00am 18.6 20.9 18.6 100 0.0 SE 4 7 2 4 1016.3 1016.3 0.0
28/02:30am 18.7 20.7 18.7 100 0.0 SE 6 7 3 4 1016.3 1016.3 0.0
28/02:00am 18.7 21.1 18.7 100 0.0 SSE 4 6 2 3 1016.5 1016.5 0.0
28/01:30am 19.2 21.4 19.2 100 0.0 SE 6 7 3 4 1016.4 1016.4 0.0
28/01:00am 18.5 21.5 18.5 100 0.0 CALM 0 0 0 0 1016.4 1016.4 0.0
28/12:30am 19.0 22.3 19.0 100 0.0 CALM 0 0 0 0 1016.5 1016.5 0.0
28/12:00am 19.4 22.8 19.4 100 0.0 CALM 0 0 0 0 1016.5 1016.5 0.0
 
Date/Time
CST
Temp
°C
App
Temp
°C
Dew
Point
Rel
Hum
%
Delta-T
°C
Wind Press
QNH
hPa
Press
MSL
hPa
Rain
since 9 am
mm
Dir
 
Spd
km/h
Gust
km/h
Spd
kts
Gust
kts
27/11:30pm 19.8 23.4 19.8 100 0.0 CALM 0 0 0 0 1016.7 1016.7 0.0
27/11:00pm 20.3 24.2 20.3 100 0.0 CALM 0 0 0 0 1016.7 1016.7 0.0
27/10:30pm 20.9 25.1 20.9 100 0.0 CALM 0 0 0 0 1016.4 1016.4 0.0
27/10:00pm 21.4 25.8 21.4 100 0.0 CALM 0 0 0 0 1016.3 1016.3 0.0
27/09:30pm 21.8 26.4 21.8 100 0.0 CALM 0 0 0 0 1016.1 1016.1 0.0
27/09:00pm 22.7 27.8 22.7 100 0.0 CALM 0 0 0 0 1015.8 1015.8 0.0
27/08:30pm 22.9 28.0 22.6 98 0.2 CALM 0 0 0 0 1015.7 1015.7 0.0
27/08:00pm 23.8 29.1 23.0 95 0.5 CALM 0 0 0 0 1015.4 1015.4 0.0
27/07:30pm 24.5 29.4 23.1 92 0.9 E 2 2 1 1 1015.1 1015.1 0.0
27/07:00pm 25.2 29.7 22.3 84 1.9 E 2 4 1 2 1014.9 1014.9 0.0
27/06:30pm 26.1 29.5 21.7 77 2.9 ENE 6 9 3 5 1014.7 1014.7 0.0
27/06:00pm 27.1 30.3 21.2 70 3.9 ENE 6 15 3 8 1014.4 1014.4 0.0
27/05:30pm 28.1 30.9 20.9 65 4.8 ENE 7 13 4 7 1014.2 1014.2 0.0
27/05:00pm 28.9 30.6 20.9 62 5.3 ENE 13 20 7 11 1013.9 1013.9 0.0
27/04:30pm 29.3 30.4 20.5 59 5.8 ENE 15 26 8 14 1013.8 1013.8 0.0
27/04:00pm 30.0 31.0 20.3 56 6.4 NE 15 24 8 13 1013.8 1013.8 0.0
27/03:30pm 30.3 31.2 20.0 54 6.8 E 15 28 8 15 1014.0 1014.0 0.0
27/03:00pm 30.1 30.0 19.5 53 6.9 E 19 32 10 17 1014.2 1014.2 0.0
27/02:30pm 30.6 31.0 19.9 52 7.0 E 17 30 9 16 1014.5 1014.5 0.0
27/02:00pm 29.9 29.2 19.6 54 6.7 ENE 22 35 12 19 1014.9 1014.9 0.0
27/01:30pm 30.6 30.5 19.9 52 7.0 E 20 35 11 19 1015.4 1015.4 0.0
27/01:00pm 31.2 32.5 20.8 54 6.9 E 15 26 8 14 1015.9 1015.9 0.0
27/12:30pm 30.0 29.5 20.0 55 6.6 E 22 35 12 19 1016.5 1016.5 0.0
27/12:00pm 30.7 31.9 20.0 52 7.0 E 13 24 7 13 1016.7 1016.7 0.0
27/11:30am 29.6 29.6 19.0 53 6.9 E 17 32 9 17 1017.1 1017.1 0.0
27/11:00am 29.2 29.2 18.9 53 6.7 E 17 28 9 15 1017.6 1017.6 0.0
27/10:30am 28.8 28.8 18.9 55 6.4 E 17 39 9 21 1018.1 1018.1 0.0
27/10:00am 28.3 30.1 21.8 68 4.4 ESE 15 30 8 16 1018.3 1018.3 0.0
27/09:30am 27.1 28.4 22.3 75 3.2 E 19 28 10 15 1018.4 1018.4 0.0
27/09:00am 26.9 31.8 24.7 88 1.5 ESE 7 17 4 9 1018.4 1018.4 0.0
27/08:30am 24.8 30.0 24.8 100 0.0 SE 6 9 3 5 1018.1 1018.1 0.0
27/08:00am 23.0 27.1 23.0 100 0.0 SE 6 7 3 4 1017.9 1017.9 0.0
27/07:30am 20.3 23.4 20.3 100 0.0 SE 4 6 2 3 1017.5 1017.5 0.0
27/07:00am 19.3 22.7 19.3 100 0.0 CALM 0 0 0 0 1017.0 1017.0 0.0
27/06:30am 19.5 23.0 19.5 100 0.0 CALM 0 0 0 0 1016.8 1016.8 0.0
27/06:00am 19.9 23.6 19.9 100 0.0 CALM 0 0 0 0 1016.3 1016.3 0.0
27/05:30am 20.2 24.0 20.2 100 0.0 CALM 0 0 0 0 1016.0 1016.0 0.0
27/05:00am 20.3 24.2 20.3 100 0.0 CALM 0 0 0 0 1015.8 1015.8 0.0
27/04:30am 20.8 24.9 20.8 100 0.0 CALM 0 0 0 0 1015.8 1015.8 0.0
27/04:00am 21.3 25.7 21.3 100 0.0 CALM 0 0 0 0 1015.7 1015.7 0.0
27/03:30am 21.9 26.6 21.9 100 0.0 CALM 0 0 0 0 1015.8 1015.8 0.0
27/03:00am 22.4 27.3 22.4 100 0.0 CALM 0 0 0 0 1015.8 1015.8 0.0
27/02:30am 22.9 28.1 22.9 100 0.0 CALM 0 0 0 0 1015.9 1015.9 0.0
27/02:00am 22.9 28.1 22.9 100 0.0 CALM 0 0 0 0 1016.2 1016.2 0.0
27/01:30am 23.1 28.4 23.1 100 0.0 CALM 0 0 0 0 1016.5 1016.5 0.0
27/01:00am 23.8 29.2 23.8 100 0.0 ENE 2 4 1 2 1016.8 1016.8 0.0
27/12:30am 24.3 29.6 24.3 100 0.0 ENE 4 6 2 3 1016.9 1016.9 0.0
27/12:00am 24.7 30.2 24.7 100 0.0 ENE 4 9 2 5 1017.0 1017.0 0.0
 
Date/Time
CST
Temp
°C
App
Temp
°C
Dew
Point
Rel
Hum
%
Delta-T
°C
Wind Press
QNH
hPa
Press
MSL
hPa
Rain
since 9 am
mm
Dir
 
Spd
km/h
Gust
km/h
Spd
kts
Gust
kts
26/11:30pm 24.7 30.2 24.7 100 0.0 E 4 6 2 3 1017.2 1017.2 0.0
26/11:00pm 24.6 30.1 24.6 100 0.0 ESE 4 6 2 3 1017.3 1017.3 0.0
26/10:30pm 24.7 30.2 24.7 100 0.0 ENE 4 7 2 4 1017.3 1017.3 0.0
26/10:00pm 24.2 29.4 24.2 100 0.0 E 4 6 2 3 1017.1 1017.1 0.0
26/09:30pm 24.4 29.7 24.4 100 0.0 ENE 4 6 2 3 1016.9 1016.9 0.0
26/09:00pm 24.8 30.4 24.8 100 0.0 ENE 4 6 2 3 1016.7 1016.7 0.0
26/08:30pm 25.2 31.0 25.2 100 0.0 ENE 4 9 2 5 1016.6 1016.6 0.0
26/08:00pm 25.5 30.7 24.8 96 0.5 NE 6 9 3 5 1016.3 1016.3 0.0
26/07:30pm 25.6 30.5 24.4 93 0.8 NE 6 9 3 5 1015.9 1015.9 0.0
26/07:00pm 25.9 30.0 23.0 84 2.0 ENE 6 13 3 7 1015.7 1015.7 0.0
26/06:30pm 26.5 29.7 21.7 75 3.2 NE 7 15 4 8 1015.3 1015.3 0.0
26/06:00pm 27.2 30.2 21.2 69 4.0 NE 7 13 4 7 1014.9 1014.9 0.0
26/05:30pm 27.8 30.5 20.6 65 4.7 ENE 7 15 4 8 1014.5 1014.5 0.0
26/05:00pm 28.4 30.4 19.9 60 5.6 ENE 9 15 5 8 1014.2 1014.2 0.0
26/04:30pm 28.4 29.5 19.6 59 5.7 ENE 13 22 7 12 1014.0 1014.0 0.0
26/04:00pm 29.9 31.6 20.2 56 6.4 NE 11 17 6 9 1013.9 1013.9 0.0
26/03:30pm 31.3 32.7 19.6 49 7.7 E 11 19 6 10 1013.9 1013.9 0.0
26/03:00pm 31.5 32.5 19.5 49 7.9 NE 13 22 7 12 1013.9 1013.9 0.0
26/02:30pm 31.7 32.6 20.0 50 7.7 E 15 22 8 12 1014.2 1014.2 0.0
26/02:00pm 31.6 32.8 19.9 50 7.7 E 13 26 7 14 1014.6 1014.6 0.0
26/01:30pm 31.2 31.8 19.5 49 7.7 E 15 26 8 14 1015.2 1015.2 0.0
26/01:00pm 31.3 32.0 19.6 49 7.7 ENE 15 26 8 14 1015.6 1015.6 0.0
26/12:30pm 31.0 31.2 19.4 50 7.6 E 17 32 9 17 1015.9 1015.9 0.0
26/12:00pm 30.9 30.9 18.9 48 7.8 ENE 17 32 9 17 1016.3 1016.3 0.0
26/11:30am 30.8 30.4 18.8 48 7.8 E 19 35 10 19 1016.7 1016.7 0.0
26/11:00am 31.1 31.9 19.1 48 7.8 E 13 24 7 13 1016.9 1016.9 0.0
26/10:30am 30.2 31.4 19.9 54 6.8 ESE 13 24 7 13 1017.0 1017.0 0.0
26/10:00am 29.1 32.4 21.8 64 4.9 ESE 7 13 4 7 1017.2 1017.2 0.0
26/09:30am 27.5 31.9 23.5 79 2.7 SSE 6 7 3 4 1017.3 1017.3 0.0
26/09:00am 25.7 31.3 25.4 98 0.2 S 6 9 3 5 1017.2 1017.2 0.0
26/08:30am 23.8 28.8 23.8 100 0.0 SSE 4 7 2 4 1016.8 1016.8 0.0
26/08:00am 21.9 26.2 21.9 100 0.0 S 2 4 1 2 1016.6 1016.6 0.0
26/07:30am 21.1 24.6 21.1 100 0.0 S 4 4 2 2 1016.2 1016.2 0.0

Other Formats:

Comma delimited format used in spreadsheet applications
http://www.bom.gov.au/fwo/IDD60801/IDD60801.94109.axf

JavaScript Object Notation format (JSON) in row-major order
http://www.bom.gov.au/fwo/IDD60801/IDD60801.94109.json